Startpagina
METAR-TAF:

METAR-TAF

Vliegvelden :

Damascus, Syrië

Luchthaven Damascus

breedte: 33-25N, lengte: 036-31E, hoogte: 608 m

Actueel weer

Dit bericht is 37 minuten geleden gemaakt, om 12:00 UTC
Wind 16 kt uit het westzuidwesten
Temperatuur 22°C
Vochtigheid 23%
Druk 1015 hPa
Zicht 10 km of meer
Weinig wolken op 3000 ft
Verspreide wolken op 20000 ft

METAR: OSDI 271200Z 24016KT 9999 FEW030 SCT200 22/00 Q1015

Tijdstip: 14:37 (12:37 UTC)

Verwachting

Dit bericht is 52 minuten geleden gemaakt, om 11:45 UTC
Verwachting geldig van 27 om 12 UTC tot 28 om 18 UTC
Wind 10 kt uit het zuidwesten
Zicht 10 km of meer
Weinig wolken op 2600 ft
Verspreide wolken op 3000 ft
Tijdelijke
van 28 om 00 UTC tot 28 om 06 UTC
Wind 3 kt uit variabele richting
Zicht 10 km of meer
geen wolken onder 1500 m en geen cumulonimbus

TAF: OSDI 271145Z 2712/2818 22010KT 9999 FEW026 SCT030 TEMPO 2800/2806 VRB03KT CAVOK

Waarnemingen en weersverwachtingen van meer dan 4000 vliegvelden (METAR en TAF).

De beschikbare stations zijn de gele en rode punten op de kaart.

Ga met uw muis naar het station om de naam te zien.

Klik dan om waarnemingen en weersverwachtingen te zien.

kaart wijzigen: klik op de groene knoppen met een zwart kruis om in te zoomen, op de groene knop met een streepje om uit te zoomen of op de groene pijlen voor aangrenzende kaarten.


METAR-TAF: